< Cyclone 199805 1998 Season Cyclone 199807 >
Cyclone 199806 (LES)
General InformationTrack Information on Google MapsDetailed Wind InformationList of All Images || ResourceGoogle EarthGE AnimationAtom FeedGeoJSON
Detalied Best Track (Time Zone = UTC)
Year Month Day Hour Lat. Long. Pressure (hPa) Wind (kt) Class Image Chart
1998 1 22 00 -15.4 142.1 1000 20 2 Image --
1998 1 22 06 -15.2 142.3 999 20 2 Image --
1998 1 22 12 -14.8 142.5 1000 20 2 Image --
1998 1 22 18 -13.9 142.5 1000 20 2 Image --
1998 1 23 00 -13.7 142.5 1000 20 2 Image --
1998 1 23 06 -14.2 141.9 998 20 2 Image --
1998 1 23 12 -14.3 141.0 998 25 2 Image --
1998 1 23 15 -14.2 140.4 997 30 2 Image --
1998 1 23 18 -14.1 139.8 994 35 3 Image --
1998 1 24 00 -13.7 139.0 990 40 3 Image --
1998 1 24 06 -13.7 138.4 986 45 3 Image --
1998 1 24 12 -13.9 137.5 982 50 4 Image --
1998 1 24 18 -14.2 136.6 980 55 4 Image --
1998 1 24 21 -14.3 136.1 976 60 4 Image --
1998 1 25 00 -14.2 135.7 988 45 3 Image --
1998 1 25 06 -14.3 135.0 996 35 3 Image --
1998 1 25 12 -14.3 134.4 1002 25 2 Image --
1998 1 25 18 -14.4 134.0 1002 20 2 Image --
1998 1 26 00 -14.6 133.4 1004 15 2 Image --
1998 1 26 06 -15.1 133.2 1001 15 2 Image --
1998 1 26 12 -15.3 133.1 1003 15 2 Image --
1998 1 26 18 -15.6 133.0 1002 15 2 Image --
1998 1 27 00 -15.6 132.8 1004 15 2 Image --
1998 1 27 06 -16.0 132.2 1002 15 2 Image --
1998 1 27 12 -15.7 131.2 1003 15 2 Image --
1998 1 27 18 -15.3 130.5 1002 20 2 Image --
1998 1 28 00 -14.9 130.1 1002 20 2 Image --
1998 1 28 06 -14.5 129.8 1000 25 2 Image --
1998 1 28 12 -14.1 129.7 1000 35 3 Image --
1998 1 28 18 -14.0 129.3 998 40 3 Image --
1998 1 29 00 -14.1 128.8 997 40 3 Image --
1998 1 29 06 -14.2 128.0 997 40 3 Image --
1998 1 29 12 -14.4 127.6 998 35 3 Image --
1998 1 29 18 -14.6 127.2 998 35 3 Image --
1998 1 30 00 -14.9 126.6 998 35 3 Image --
1998 1 30 06 -15.2 126.2 998 35 3 Image --
1998 1 30 12 -15.8 125.1 998 35 3 Image --
1998 1 30 18 -16.1 124.3 998 35 3 Image --
1998 1 31 00 -16.5 123.6 998 35 3 Image --
1998 1 31 06 -16.8 123.2 998 35 3 Image --
1998 1 31 12 -17.1 122.8 999 30 2 Image --
1998 1 31 18 -18.1 122.6 1000 30 2 Image --
1998 2 1 00 -18.7 122.7 1000 30 2 Image --
< Cyclone 199805 1998 Season Cyclone 199807 >

Help